ZLO weather

Playa De Oro International Airport
Manzanillo, Col ima, Mexico

Public forecast

Using degrees Celsius for public forecast. Weather courtesy of forecast.io.

METAR (pilot weather report)

Retrieved 2019/04/23 18:40 UTC (49 minutes ago):

MMZO 231840Z 15010KT 10SM SCT100 SCT200 26/20 A2992 RMK 8/051 HZY

TAF (pilot weather forecast)

Retrieved 2019/04/23 18:56 UTC (33 minutes ago):

TAF MMZO 231650Z 2318/2418 24010KT P6SM SCT030 SCT100 TEMPO 2410/2414 2SM BR BKN010 FM241700 23010KT P6SM SCT020